Time;durP1;ratioP1;P1;durP2;ratioP2;P2;SDS_P1;SDS_P2;PMS_P1;PMS_P2;Temp;Humidity;BMP_temperature;BMP_pressure;BME280_temperature;BME280_humidity;BME280_pressure;Samples;Min_cycle;Max_cycle;Signal;HPM_P1;HPM_P2
2022/04/09 00:01:29;;;;;;;;;;;;;;;5.04;81.26;97173.41;8393810;28;19967;-71
2022/04/09 00:05:30;;;;;;;;;;;;;;;5.04;81.27;97166.19;8394098;28;20430;-72
2022/04/09 00:09:31;;;;;;;;;;;;;;;5.01;81.23;97166.03;8392609;28;20023;-71
2022/04/09 00:13:32;;;;;;;;;;;;;;;5.00;81.27;97165.25;8413947;28;20010;-71
2022/04/09 00:17:39;;;;;;;;;;;;;;;4.89;82.32;97180.06;8399684;28;19979;-71
2022/04/09 00:21:40;;;;;;;;;;;;;;;4.85;83.03;97178.34;8397757;28;19978;-71
2022/04/09 00:25:41;;;;;;;;;;;;;;;4.79;83.51;97174.28;8399565;28;20332;-71
2022/04/09 00:29:41;;;;;;;;;;;;;;;4.85;82.97;97162.31;8400075;28;20362;-71
2022/04/09 00:33:42;;;;;;;;;;;;;;;4.93;82.03;97148.09;8399866;28;19967;-71
2022/04/09 00:37:44;;;;;;;;;;;;;;;4.98;81.87;97139.91;8397741;28;20058;-71
2022/04/09 00:41:49;;;;;;;;;;;;;;;5.01;81.33;97133.94;8399636;28;19974;-71
2022/04/09 00:45:50;;;;;;;;;;;;;;;5.01;81.15;97133.94;8399364;28;19967;-72
2022/04/09 00:49:51;;;;;;;;;;;;;;;5.00;81.29;97143.06;8398803;28;20274;-71
2022/04/09 00:53:52;;;;;;;;;;;;;;;4.97;81.48;97138.38;8413799;28;20200;-71
2022/04/09 00:57:53;;;;;;;;;;;;;;;5.00;81.50;97137.72;8398322;28;19978;-71
2022/04/09 01:01:54;;;;;;;;;;;;;;;5.00;81.52;97135.03;8379523;28;19967;-72
2022/04/09 01:05:55;;;;;;;;;;;;;;;5.03;81.23;97142.41;8398489;28;20040;-71
2022/04/09 01:09:55;;;;;;;;;;;;;;;5.06;80.87;97152.50;8379703;28;20007;-71
2022/04/09 01:13:56;;;;;;;;;;;;;;;5.02;81.04;97151.56;8398724;28;19977;-71
2022/04/09 01:17:59;;;;;;;;;;;;;;;5.03;81.33;97148.56;8395923;28;19967;-71
2022/04/09 01:22:00;;;;;;;;;;;;;;;5.03;81.35;97163.81;8397696;28;19968;-71
2022/04/09 01:26:01;;;;;;;;;;;;;;;4.91;82.60;97182.44;8397916;28;20000;-71
2022/04/09 01:30:02;;;;;;;;;;;;;;;4.91;82.43;97198.47;8395786;28;19983;-71
2022/04/09 01:34:03;;;;;;;;;;;;;;;4.93;82.67;97217.66;8398264;28;20003;-72
2022/04/09 01:38:04;;;;;;;;;;;;;;;4.93;83.08;97223.00;8397003;28;20469;-71
2022/04/09 01:42:10;;;;;;;;;;;;;;;4.88;84.14;97225.84;8412383;28;19975;-72
2022/04/09 01:46:11;;;;;;;;;;;;;;;4.80;84.75;97234.69;8397297;28;19971;-72
2022/04/09 01:50:11;;;;;;;;;;;;;;;4.72;85.25;97244.25;8397526;28;19991;-71
2022/04/09 01:54:12;;;;;;;;;;;;;;;4.67;85.81;97253.22;8396847;28;20439;-72
2022/04/09 01:58:13;;;;;;;;;;;;;;;4.58;86.19;97260.47;8396881;28;19972;-72
2022/04/09 02:02:14;;;;;;;;;;;;;;;4.54;86.36;97258.75;8396919;28;20439;-72
2022/04/09 02:06:14;;;;;;;;;;;;;;;4.51;86.68;97265.50;8396985;28;19978;-72
2022/04/09 02:10:16;;;;;;;;;;;;;;;4.46;86.95;97273.66;8396659;28;20365;-72
2022/04/09 02:14:17;;;;;;;;;;;;;;;4.42;87.45;97278.06;8396275;28;19998;-72
2022/04/09 02:18:18;;;;;;;;;;;;;;;4.34;87.89;97281.50;8377808;28;20069;-72
2022/04/09 02:22:23;;;;;;;;;;;;;;;4.30;88.27;97275.22;8395840;28;20061;-72
2022/04/09 02:26:24;;;;;;;;;;;;;;;4.20;88.52;97280.88;8393774;28;20465;-72
2022/04/09 02:30:25;;;;;;;;;;;;;;;4.19;88.50;97279.28;8396082;28;19987;-72
2022/04/09 02:34:26;;;;;;;;;;;;;;;4.16;88.40;97279.91;8395203;28;19971;-72
2022/04/09 02:38:26;;;;;;;;;;;;;;;4.12;88.21;97290.44;8395998;28;20066;-72
2022/04/09 02:42:27;;;;;;;;;;;;;;;4.16;87.94;97285.25;8395696;28;19971;-72
2022/04/09 02:46:28;;;;;;;;;;;;;;;4.13;88.40;97285.88;8395852;28;20065;-72
2022/04/09 02:50:29;;;;;;;;;;;;;;;4.16;88.32;97295.94;8395063;28;20378;-72
2022/04/09 02:54:29;;;;;;;;;;;;;;;4.14;88.36;97298.13;8395210;28;19967;-72
2022/04/09 02:58:30;;;;;;;;;;;;;;;4.11;88.81;97304.09;8393124;28;19971;-72
2022/04/09 03:02:31;;;;;;;;;;;;;;;4.01;89.17;97310.53;8395065;28;20065;-72
2022/04/09 03:06:32;;;;;;;;;;;;;;;3.93;89.57;97315.81;8395346;28;19978;-72
2022/04/09 03:10:32;;;;;;;;;;;;;;;3.88;90.12;97315.97;8394881;28;20040;-72
2022/04/09 03:14:33;;;;;;;;;;;;;;;3.92;90.04;97328.38;8394539;28;19997;-72
2022/04/09 03:18:34;;;;;;;;;;;;;;;3.93;90.23;97323.84;8392949;28;20246;-72
2022/04/09 03:22:35;;;;;;;;;;;;;;;3.86;90.46;97318.94;8394002;28;20065;-72
2022/04/09 03:26:36;;;;;;;;;;;;;;;3.85;90.65;97345.97;8394922;28;20480;-72
2022/04/09 03:30:37;;;;;;;;;;;;;;;3.91;90.27;97350.06;8394715;28;19990;-72
2022/04/09 03:34:38;;;;;;;;;;;;;;;3.88;90.51;97353.34;8392461;28;20010;-72
2022/04/09 03:38:40;;;;;;;;;;;;;;;3.90;90.89;97356.50;8395216;28;20342;-72
2022/04/09 03:42:41;;;;;;;;;;;;;;;3.90;90.71;97367.19;8394494;28;19971;-72
2022/04/09 03:46:41;;;;;;;;;;;;;;;3.82;91.15;97376.72;8393356;28;19974;-72
2022/04/09 03:50:43;;;;;;;;;;;;;;;3.85;91.24;97380.66;8391846;28;20358;-72
2022/04/09 03:54:44;;;;;;;;;;;;;;;3.81;91.45;97381.28;8408966;28;19967;-72
2022/04/09 03:58:47;;;;;;;;;;;;;;;3.80;91.67;97390.41;8394196;28;20002;-71
2022/04/09 04:02:51;;;;;;;;;;;;;;;3.79;91.89;97391.47;8393113;28;19998;-72
2022/04/09 04:06:52;;;;;;;;;;;;;;;3.82;91.59;97393.53;8394008;28;20346;-72
2022/04/09 04:10:53;;;;;;;;;;;;;;;3.78;91.79;97397.91;8392749;28;19987;-72
2022/04/09 04:14:53;;;;;;;;;;;;;;;3.74;92.14;97406.84;8391513;28;20453;-72
2022/04/09 04:18:54;;;;;;;;;;;;;;;3.79;91.56;97409.38;8397901;28;19970;-72
2022/04/09 04:22:55;;;;;;;;;;;;;;;3.75;91.73;97419.88;8390924;28;20017;-72
2022/04/09 04:26:56;;;;;;;;;;;;;;;3.79;91.62;97420.06;8416202;28;19971;-72
2022/04/09 04:30:56;;;;;;;;;;;;;;;3.81;91.60;97424.00;8409519;28;20111;-72
2022/04/09 04:34:57;;;;;;;;;;;;;;;3.80;91.49;97427.78;8394800;28;19968;-72
2022/04/09 04:38:59;;;;;;;;;;;;;;;3.74;91.79;97434.34;8403685;28;20341;-72
2022/04/09 04:43:00;;;;;;;;;;;;;;;3.75;92.11;97427.13;8392229;28;20065;-72
2022/04/09 04:47:00;;;;;;;;;;;;;;;3.77;91.82;97427.59;8398154;28;19967;-72
2022/04/09 04:51:01;;;;;;;;;;;;;;;3.77;91.80;97428.38;8404123;28;20040;-72
2022/04/09 04:55:03;;;;;;;;;;;;;;;3.89;91.56;97435.03;8403978;28;19975;-72
2022/04/09 04:59:04;;;;;;;;;;;;;;;3.99;90.91;97440.13;8403841;28;19967;-72
2022/04/09 05:03:05;;;;;;;;;;;;;;;4.06;90.77;97440.47;8410716;28;20021;-73
2022/04/09 05:07:05;;;;;;;;;;;;;;;3.97;90.87;97447.63;8390127;28;20430;-72
2022/04/09 05:11:06;;;;;;;;;;;;;;;3.96;90.99;97446.09;8410052;28;20108;-72
2022/04/09 05:15:08;;;;;;;;;;;;;;;3.98;91.22;97454.56;8420509;28;19977;-72
2022/04/09 05:19:09;;;;;;;;;;;;;;;3.98;91.48;97454.56;8399457;28;20427;-72
2022/04/09 05:23:10;;;;;;;;;;;;;;;4.00;91.74;97463.06;8398858;28;20324;-72
2022/04/09 05:27:11;;;;;;;;;;;;;;;4.02;92.09;97482.25;8400426;28;19971;-72
2022/04/09 05:31:12;;;;;;;;;;;;;;;3.93;92.26;97489.41;8398850;28;19991;-72
2022/04/09 05:35:13;;;;;;;;;;;;;;;3.98;92.39;97490.06;8398266;28;20037;-72
2022/04/09 05:39:16;;;;;;;;;;;;;;;3.99;92.48;97496.22;8395688;28;19972;-72
2022/04/09 05:43:17;;;;;;;;;;;;;;;4.10;92.58;97510.91;8398229;28;19977;-72
2022/04/09 05:47:18;;;;;;;;;;;;;;;4.08;92.46;97500.50;8397340;28;19975;-72
2022/04/09 05:51:19;;;;;;;;;;;;;;;4.16;92.73;97505.13;8397137;28;19990;-72
2022/04/09 05:55:20;;;;;;;;;;;;;;;4.18;92.34;97523.50;8397890;28;20346;-72
2022/04/09 05:59:20;;;;;;;;;;;;;;;4.27;92.43;97527.03;8397610;28;19971;-72
2022/04/09 06:03:23;;;;;;;;;;;;;;;4.26;91.91;97552.19;8397391;28;20478;-72
2022/04/09 06:07:24;;;;;;;;;;;;;;;4.34;92.25;97548.75;8395913;28;20028;-72
2022/04/09 06:11:25;;;;;;;;;;;;;;;4.40;92.16;97574.25;8395648;28;19991;-72
2022/04/09 06:15:25;;;;;;;;;;;;;;;4.39;92.21;97567.34;8397254;28;19970;-72
2022/04/09 06:19:27;;;;;;;;;;;;;;;4.44;92.30;97580.56;8394332;28;20521;-72
2022/04/09 06:23:27;;;;;;;;;;;;;;;4.39;91.92;97594.06;8391096;28;19975;-71
2022/04/09 06:27:28;;;;;;;;;;;;;;;4.51;91.81;97602.31;8396163;28;19971;-72
2022/04/09 06:31:29;;;;;;;;;;;;;;;4.53;92.21;97602.81;8395573;28;20324;-72
2022/04/09 06:35:30;;;;;;;;;;;;;;;4.55;91.35;97597.94;8396313;28;19978;-72
2022/04/09 06:39:30;;;;;;;;;;;;;;;4.63;91.48;97618.59;8395776;28;20069;-71
2022/04/09 06:43:31;;;;;;;;;;;;;;;4.70;91.53;97636.09;8395921;28;20056;-72
2022/04/09 06:47:34;;;;;;;;;;;;;;;4.64;91.70;97646.94;8394909;28;19974;-71
2022/04/09 06:51:35;;;;;;;;;;;;;;;4.72;90.73;97649.94;8392731;28;20023;-72
2022/04/09 06:55:36;;;;;;;;;;;;;;;4.75;90.63;97660.03;8392939;28;20017;-71
2022/04/09 06:59:37;;;;;;;;;;;;;;;4.81;89.44;97680.97;8395435;28;19999;-72
2022/04/09 07:03:38;;;;;;;;;;;;;;;4.96;90.00;97677.16;8394697;28;20009;-71
2022/04/09 07:07:39;;;;;;;;;;;;;;;5.13;89.36;97693.28;8394722;28;20024;-72
2022/04/09 07:11:40;;;;;;;;;;;;;;;5.14;89.07;97694.88;8394696;28;19998;-71
2022/04/09 07:15:41;;;;;;;;;;;;;;;5.16;88.79;97700.72;8394984;28;20002;-71
2022/04/09 07:19:44;;;;;;;;;;;;;;;5.28;88.18;97710.84;8394165;28;20109;-72
2022/04/09 07:23:45;;;;;;;;;;;;;;;5.55;85.50;97720.56;8394496;28;20054;-72
2022/04/09 07:27:47;;;;;;;;;;;;;;;5.93;84.68;97737.72;8394229;28;19974;-72
2022/04/09 07:31:48;;;;;;;;;;;;;;;6.05;83.64;97740.59;8392041;28;19986;-72
2022/04/09 07:35:49;;;;;;;;;;;;;;;6.07;82.59;97753.72;8394181;28;20482;-71
2022/04/09 07:39:50;;;;;;;;;;;;;;;6.10;83.70;97769.16;8393984;28;19967;-71
2022/04/09 07:43:51;;;;;;;;;;;;;;;6.19;81.70;97789.50;8394210;28;20429;-71
2022/04/09 07:47:53;;;;;;;;;;;;;;;6.14;81.07;97792.34;8393645;28;19971;-71
2022/04/09 07:51:54;;;;;;;;;;;;;;;6.27;78.70;97812.88;8394362;28;20021;-71
2022/04/09 07:55:55;;;;;;;;;;;;;;;6.30;76.73;97806.09;8394058;28;19975;-72
2022/04/09 07:59:57;;;;;;;;;;;;;;;6.61;76.67;97828.25;8372863;28;19968;-72
2022/04/09 08:03:59;;;;;;;;;;;;;;;6.74;74.33;97821.16;8392620;28;20445;-71
2022/04/09 08:08:01;;;;;;;;;;;;;;;6.50;71.49;97836.91;8393910;28;19977;-71
2022/04/09 08:12:02;;;;;;;;;;;;;;;6.47;72.31;97848.25;8374826;28;20455;-72
2022/04/09 08:16:02;;;;;;;;;;;;;;;6.48;72.58;97860.56;8394357;28;19999;-72
2022/04/09 08:20:04;;;;;;;;;;;;;;;6.66;72.66;97864.88;8400667;28;19975;-72
2022/04/09 08:24:05;;;;;;;;;;;;;;;6.52;72.93;97866.88;8395786;28;20062;-72
2022/04/09 08:28:06;;;;;;;;;;;;;;;6.47;74.23;97875.06;8403609;28;20435;-70
2022/04/09 08:32:07;;;;;;;;;;;;;;;6.40;73.38;97893.53;8407500;28;19994;-70
2022/04/09 08:36:08;;;;;;;;;;;;;;;6.92;69.05;97881.81;8406219;28;19997;-73
2022/04/09 08:40:13;;;;;;;;;;;;;;;6.72;66.22;97893.13;8412228;28;19968;-72
2022/04/09 08:44:15;;;;;;;;;;;;;;;6.64;67.22;97902.75;8405609;28;19967;-72
2022/04/09 08:48:15;;;;;;;;;;;;;;;6.78;66.70;97907.97;8371029;28;19974;-72
2022/04/09 08:52:16;;;;;;;;;;;;;;;6.85;66.29;97924.41;8422415;28;19967;-72
2022/04/09 08:56:18;;;;;;;;;;;;;;;6.69;65.70;97936.69;8407936;28;19967;-72
2022/04/09 09:00:21;;;;;;;;;;;;;;;7.03;63.16;97926.00;8416100;28;20017;-71
2022/04/09 09:04:22;;;;;;;;;;;;;;;7.00;61.37;97921.28;8405353;28;20363;-72
2022/04/09 09:08:36;;;;;;;;;;;;;;;7.06;61.74;97930.75;8404756;28;19994;-72
2022/04/09 09:12:38;;;;;;;;;;;;;;;7.29;60.79;97936.00;8407082;28;19975;-72
2022/04/09 09:16:39;;;;;;;;;;;;;;;7.12;59.90;97953.69;8400591;28;19974;-72
2022/04/09 09:20:47;;;;;;;;;;;;;;;7.13;60.56;97952.56;8413696;28;20361;-72
2022/04/09 09:25:04;;;;;;;;;;;;;;;7.18;59.53;97960.47;8414129;28;20021;-72
2022/04/09 09:29:05;;;;;;;;;;;;;;;7.04;59.48;97981.28;8403963;28;20047;-73
2022/04/09 09:33:06;;;;;;;;;;;;;;;7.21;59.02;97981.31;8411791;28;19971;-72
2022/04/09 09:37:12;;;;;;;;;;;;;;;7.57;57.65;97988.31;8393455;28;19971;-72
2022/04/09 09:41:26;;;;;;;;;;;;;;;7.43;56.88;97993.03;8416033;28;20032;-72
2022/04/09 09:45:40;;;;;;;;;;;;;;;7.52;56.79;98001.88;8339877;28;19976;-72
2022/04/09 09:49:55;;;;;;;;;;;;;;;7.66;57.29;98013.28;8394186;28;20763;-72
2022/04/09 09:54:05;;;;;;;;;;;;;;;7.65;57.92;98030.53;8399379;28;20493;-72
2022/04/09 09:58:06;;;;;;;;;;;;;;;7.35;58.40;98034.88;8429024;28;19971;-72
2022/04/09 10:02:07;;;;;;;;;;;;;;;7.70;58.47;98025.00;8417222;28;19978;-73
2022/04/09 10:06:08;;;;;;;;;;;;;;;7.87;56.57;98043.81;8398639;28;19971;-72
2022/04/09 10:10:09;;;;;;;;;;;;;;;7.95;54.86;98048.38;8376563;28;20438;-72
2022/04/09 10:14:13;;;;;;;;;;;;;;;8.23;51.93;98053.44;8365593;28;19971;-72
2022/04/09 10:18:14;;;;;;;;;;;;;;;8.25;50.38;98057.38;8406500;28;20088;-72
2022/04/09 10:22:15;;;;;;;;;;;;;;;8.21;49.41;98066.38;8398965;28;20478;-72
2022/04/09 10:26:16;;;;;;;;;;;;;;;8.32;48.78;98089.19;8383588;28;19975;-71
2022/04/09 10:30:21;;;;;;;;;;;;;;;8.18;50.07;98089.34;8400302;28;20473;-71
2022/04/09 10:34:21;;;;;;;;;;;;;;;8.03;51.22;98109.44;8403746;28;20020;-71
2022/04/09 10:38:23;;;;;;;;;;;;;;;8.28;48.64;98105.16;8402819;28;19967;-71
2022/04/09 10:42:42;;;;;;;;;;;;;;;8.28;48.46;98109.75;8403621;28;20469;-72
2022/04/09 10:46:43;;;;;;;;;;;;;;;8.56;48.67;98119.09;8397057;28;19968;-71
2022/04/09 10:50:56;;;;;;;;;;;;;;;8.82;49.07;98119.84;8391243;28;20385;-71
2022/04/09 10:55:24;;;;;;;;;;;;;;;8.72;49.10;98120.19;8395382;28;19974;-72
2022/04/09 10:59:27;;;;;;;;;;;;;;;8.83;45.80;98142.13;8320510;28;20650;-71
2022/04/09 11:03:28;;;;;;;;;;;;;;;8.83;45.41;98132.16;8323594;28;19975;-69
2022/04/09 11:07:31;;;;;;;;;;;;;;;8.62;44.48;98131.25;8322950;28;20423;-71
2022/04/09 11:11:32;;;;;;;;;;;;;;;8.38;46.00;98126.38;8324447;28;19991;-70
2022/04/09 11:15:33;;;;;;;;;;;;;;;8.58;47.73;98119.56;8322621;28;19968;-71
2022/04/09 11:19:34;;;;;;;;;;;;;;;8.87;45.18;98111.59;8271756;28;19975;-71
2022/04/09 11:23:35;;;;;;;;;;;;;;;8.98;43.59;98122.00;8290844;28;19967;-71
2022/04/09 11:27:36;;;;;;;;;;;;;;;9.45;44.49;98126.25;8327528;28;20517;-70
2022/04/09 11:31:47;;;;;;;;;;;;;;;9.58;43.28;98140.59;8307807;28;19984;-70
2022/04/09 11:35:48;;;;;;;;;;;;;;;9.48;44.47;98149.84;8366696;28;19972;-71
2022/04/09 11:39:50;;;;;;;;;;;;;;;9.10;44.24;98151.72;8384257;28;20048;-71
2022/04/09 11:43:51;;;;;;;;;;;;;;;8.62;48.05;98179.69;8402917;28;19999;-71
2022/04/09 11:47:53;;;;;;;;;;;;;;;7.92;54.33;98194.19;8397206;28;19997;-71
2022/04/09 11:51:54;;;;;;;;;;;;;;;7.38;60.27;98200.00;8393699;28;19989;-71
2022/04/09 11:55:59;;;;;;;;;;;;;;;6.90;63.14;98184.59;8392313;28;20384;-71
2022/04/09 12:00:00;;;;;;;;;;;;;;;6.94;65.96;98163.28;8394077;28;20451;-71
2022/04/09 12:04:00;;;;;;;;;;;;;;;7.29;64.47;98158.91;8390414;28;19975;-71
2022/04/09 12:08:01;;;;;;;;;;;;;;;7.60;63.56;98160.44;8398008;28;20021;-69
2022/04/09 12:12:02;;;;;;;;;;;;;;;7.95;60.55;98161.28;8402164;28;19987;-69
2022/04/09 12:16:09;;;;;;;;;;;;;;;8.17;58.10;98171.13;8397769;28;20010;-69
2022/04/09 12:20:48;;;;;;;;;;;;;;;8.86;56.61;98157.66;8405690;28;20331;-71
2022/04/09 12:24:50;;;;;;;;;;;;;;;9.16;52.66;98182.78;8329923;28;19971;-70
2022/04/09 12:29:07;;;;;;;;;;;;;;;9.34;51.63;98173.53;8311411;28;19991;-69
2022/04/09 12:33:10;;;;;;;;;;;;;;;9.14;50.25;98179.63;8331472;28;19968;-70
2022/04/09 12:37:10;;;;;;;;;;;;;;;8.73;50.88;98180.97;8332871;28;19967;-69
2022/04/09 12:41:11;;;;;;;;;;;;;;;8.59;51.27;98180.34;8325376;28;20058;-69
2022/04/09 12:45:13;;;;;;;;;;;;;;;8.62;52.53;98179.69;8324065;28;19971;-70
2022/04/09 12:49:14;;;;;;;;;;;;;;;9.01;51.14;98194.06;8339275;28;20014;-70
2022/04/09 12:53:14;;;;;;;;;;;;;;;9.18;50.45;98185.94;8332430;28;20323;-70
2022/04/09 12:57:15;;;;;;;;;;;;;;;9.19;48.98;98193.72;8396913;28;19982;-70
2022/04/09 13:01:19;;;;;;;;;;;;;;;9.78;48.20;98187.63;8396804;28;19975;-72
2022/04/09 13:05:21;;;;;;;;;;;;;;;9.88;46.70;98192.63;8396022;28;19971;-72
2022/04/09 13:09:21;;;;;;;;;;;;;;;10.33;44.66;98188.22;8395853;28;20060;-72
2022/04/09 13:13:22;;;;;;;;;;;;;;;10.24;42.82;98190.22;8396978;28;20369;-72
2022/04/09 13:17:23;;;;;;;;;;;;;;;10.54;41.98;98194.41;8393923;28;19979;-72
2022/04/09 13:21:25;;;;;;;;;;;;;;;10.32;41.81;98200.13;8396616;28;20077;-71
2022/04/09 13:25:25;;;;;;;;;;;;;;;9.96;41.81;98194.47;8410710;28;20032;-72
2022/04/09 13:29:26;;;;;;;;;;;;;;;9.95;43.59;98203.69;8395511;28;20011;-72
2022/04/09 13:33:27;;;;;;;;;;;;;;;9.71;45.01;98215.88;8392733;28;20341;-71
2022/04/09 13:37:28;;;;;;;;;;;;;;;9.88;46.18;98219.59;8398419;28;20006;-71
2022/04/09 13:41:29;;;;;;;;;;;;;;;9.86;45.89;98228.00;8396375;28;19971;-71
2022/04/09 13:45:30;;;;;;;;;;;;;;;11.58;46.35;98223.13;8396780;28;20370;-71
2022/04/09 13:49:30;;;;;;;;;;;;;;;13.46;44.95;98199.66;8396894;28;19991;-72
2022/04/09 13:53:31;;;;;;;;;;;;;;;14.24;41.24;98212.38;8395507;28;20065;-71
2022/04/09 13:57:32;;;;;;;;;;;;;;;14.65;39.70;98209.03;8393609;28;19978;-72
2022/04/09 14:01:33;;;;;;;;;;;;;;;15.88;38.26;98203.53;8394153;28;19975;-72
2022/04/09 14:05:34;;;;;;;;;;;;;;;16.73;35.35;98202.03;8396292;28;20442;-71
2022/04/09 14:09:35;;;;;;;;;;;;;;;17.54;34.33;98218.53;8397286;28;19991;-72
2022/04/09 14:13:36;;;;;;;;;;;;;;;16.25;35.42;98220.81;8393796;28;20521;-72
2022/04/09 14:17:36;;;;;;;;;;;;;;;17.04;31.65;98218.00;8375259;28;19977;-72
2022/04/09 14:21:37;;;;;;;;;;;;;;;18.11;28.67;98215.13;8394222;28;20429;-72
2022/04/09 14:25:39;;;;;;;;;;;;;;;17.53;29.14;98222.41;8390638;28;19975;-72
2022/04/09 14:29:39;;;;;;;;;;;;;;;15.09;33.31;98230.47;8384292;28;19994;-72
2022/04/09 14:33:40;;;;;;;;;;;;;;;13.17;37.77;98238.78;8396504;28;19995;-71
2022/04/09 14:37:41;;;;;;;;;;;;;;;11.82;39.20;98228.56;8396180;28;19971;-72
2022/04/09 14:41:42;;;;;;;;;;;;;;;11.24;42.09;98238.59;8395402;28;20058;-72
2022/04/09 14:45:43;;;;;;;;;;;;;;;11.08;44.77;98250.34;8395682;28;20020;-72
2022/04/09 14:49:44;;;;;;;;;;;;;;;12.56;44.82;98243.63;8395650;28;19987;-71
2022/04/09 14:53:45;;;;;;;;;;;;;;;15.36;41.83;98234.88;8395968;28;20149;-72
2022/04/09 14:57:48;;;;;;;;;;;;;;;16.48;34.80;98223.50;8395225;28;20057;-72
2022/04/09 15:01:49;;;;;;;;;;;;;;;16.87;33.14;98234.91;8393527;28;19974;-72
2022/04/09 15:05:50;;;;;;;;;;;;;;;15.85;33.84;98242.38;8395065;28;19967;-72
2022/04/09 15:09:52;;;;;;;;;;;;;;;16.81;32.11;98241.88;8393127;28;20528;-72
2022/04/09 15:13:53;;;;;;;;;;;;;;;17.87;31.49;98236.78;8396190;28;20124;-72
2022/04/09 15:17:53;;;;;;;;;;;;;;;18.34;30.23;98255.09;8395249;28;19975;-72
2022/04/09 15:21:59;;;;;;;;;;;;;;;17.01;32.36;98251.47;8393924;28;19994;-72
2022/04/09 15:26:00;;;;;;;;;;;;;;;17.51;32.50;98260.19;8394493;28;19978;-72
2022/04/09 15:30:02;;;;;;;;;;;;;;;17.41;32.42;98258.94;8395065;28;19986;-72
2022/04/09 15:34:02;;;;;;;;;;;;;;;17.31;30.76;98271.31;8393125;28;20369;-71
2022/04/09 15:38:03;;;;;;;;;;;;;;;16.43;32.42;98270.13;8393868;28;19982;-72
2022/04/09 15:42:05;;;;;;;;;;;;;;;14.30;35.47;98270.72;8394745;28;19971;-71
2022/04/09 15:46:06;;;;;;;;;;;;;;;14.47;35.41;98264.94;8394699;28;19971;-72
2022/04/09 15:50:07;;;;;;;;;;;;;;;15.75;34.14;98264.78;8394371;28;19987;-72
2022/04/09 15:54:08;;;;;;;;;;;;;;;16.04;33.90;98264.09;8393907;28;20006;-72
2022/04/09 15:58:09;;;;;;;;;;;;;;;13.83;36.77;98279.66;8395035;28;19979;-72
2022/04/09 16:02:11;;;;;;;;;;;;;;;12.44;37.98;98278.84;8393235;28;19971;-72
2022/04/09 16:06:12;;;;;;;;;;;;;;;11.57;40.07;98286.44;8392407;28;20058;-72
2022/04/09 16:10:13;;;;;;;;;;;;;;;11.02;40.89;98290.28;8392148;28;20437;-73
2022/04/09 16:14:14;;;;;;;;;;;;;;;11.02;41.16;98290.28;8393444;28;19975;-73
2022/04/09 16:18:15;;;;;;;;;;;;;;;10.79;42.26;98297.13;8394565;28;19967;-72
2022/04/09 16:22:15;;;;;;;;;;;;;;;10.73;43.47;98298.47;8393294;28;19971;-72
2022/04/09 16:26:17;;;;;;;;;;;;;;;10.73;43.57;98301.19;8393258;28;20006;-72
2022/04/09 16:30:18;;;;;;;;;;;;;;;10.48;44.71;98308.31;8393979;28;19991;-72
2022/04/09 16:34:19;;;;;;;;;;;;;;;10.48;45.36;98309.09;8392406;28;20021;-72
2022/04/09 16:38:19;;;;;;;;;;;;;;;10.07;46.44;98308.97;8390257;28;20496;-72
2022/04/09 16:42:20;;;;;;;;;;;;;;;9.68;48.46;98318.94;8391290;28;20427;-72
2022/04/09 16:46:24;;;;;;;;;;;;;;;9.48;48.59;98314.25;8392691;28;19978;-73
2022/04/09 16:50:24;;;;;;;;;;;;;;;9.25;49.74;98320.97;8357962;28;19987;-72
2022/04/09 16:54:25;;;;;;;;;;;;;;;9.07;51.01;98319.38;8396332;28;20050;-72
2022/04/09 16:58:26;;;;;;;;;;;;;;;8.90;52.01;98326.34;8371712;28;20006;-72
2022/04/09 17:02:27;;;;;;;;;;;;;;;8.71;53.01;98328.56;8399918;28;19971;-73
2022/04/09 17:06:28;;;;;;;;;;;;;;;8.56;53.71;98331.69;8399915;28;20220;-72
2022/04/09 17:10:29;;;;;;;;;;;;;;;8.23;54.29;98327.78;8409141;28;20458;-73
2022/04/09 17:14:30;;;;;;;;;;;;;;;8.17;54.10;98331.72;8399600;28;19967;-72
2022/04/09 17:18:34;;;;;;;;;;;;;;;7.95;53.76;98344.13;8399198;28;20009;-73
2022/04/09 17:22:35;;;;;;;;;;;;;;;7.80;53.55;98352.59;8413922;28;20002;-72
2022/04/09 17:26:35;;;;;;;;;;;;;;;7.66;53.64;98351.88;8399019;28;20026;-72
2022/04/09 17:30:36;;;;;;;;;;;;;;;7.47;54.00;98359.34;8399066;28;20450;-72
2022/04/09 17:34:37;;;;;;;;;;;;;;;7.32;54.29;98362.38;8428797;28;20002;-72
2022/04/09 17:38:38;;;;;;;;;;;;;;;7.14;55.08;98367.63;8397460;28;20456;-72
2022/04/09 17:42:40;;;;;;;;;;;;;;;6.98;55.96;98374.44;8398514;28;19975;-71
2022/04/09 17:46:41;;;;;;;;;;;;;;;6.89;56.65;98381.63;8398487;28;19978;-71
2022/04/09 17:50:42;;;;;;;;;;;;;;;6.93;57.05;98393.34;8398219;28;19998;-71
2022/04/09 17:54:43;;;;;;;;;;;;;;;7.04;56.60;98400.06;8398549;28;19974;-71
2022/04/09 17:58:43;;;;;;;;;;;;;;;7.20;54.17;98404.00;8398064;28;20066;-71
2022/04/09 18:02:45;;;;;;;;;;;;;;;7.16;52.50;98413.78;8397017;28;20496;-71
2022/04/09 18:06:46;;;;;;;;;;;;;;;7.14;51.34;98426.69;8393307;28;19971;-72
2022/04/09 18:10:47;;;;;;;;;;;;;;;7.07;50.70;98437.06;8396052;28;19987;-71
2022/04/09 18:14:47;;;;;;;;;;;;;;;7.11;50.36;98442.63;8395064;28;19972;-72
2022/04/09 18:18:48;;;;;;;;;;;;;;;6.93;50.85;98452.41;8397217;28;19974;-71
2022/04/09 18:22:52;;;;;;;;;;;;;;;6.80;51.94;98463.94;8394953;28;20335;-71
2022/04/09 18:26:53;;;;;;;;;;;;;;;6.72;52.86;98464.63;8396519;28;19975;-71
2022/04/09 18:30:54;;;;;;;;;;;;;;;6.88;53.30;98476.66;8396203;28;19994;-72
2022/04/09 18:34:55;;;;;;;;;;;;;;;6.69;55.25;98478.66;8394362;28;19971;-72
2022/04/09 18:38:56;;;;;;;;;;;;;;;6.64;56.02;98486.81;8411141;28;19979;-72
2022/04/09 18:42:57;;;;;;;;;;;;;;;6.49;56.84;98495.16;8395020;28;20440;-71
2022/04/09 18:47:00;;;;;;;;;;;;;;;6.47;56.84;98502.69;8395856;28;19971;-73
2022/04/09 18:51:01;;;;;;;;;;;;;;;6.50;57.23;98528.94;8396021;28;20041;-72
2022/04/09 18:55:02;;;;;;;;;;;;;;;6.30;57.96;98524.69;8396311;28;20014;-72
2022/04/09 18:59:05;;;;;;;;;;;;;;;6.02;59.09;98533.78;8395784;28;19982;-72
2022/04/09 19:03:05;;;;;;;;;;;;;;;5.93;59.20;98525.56;8394234;28;19975;-72
2022/04/09 19:07:07;;;;;;;;;;;;;;;5.73;59.59;98525.88;8401751;28;20073;-72
2022/04/09 19:11:08;;;;;;;;;;;;;;;5.75;59.60;98529.06;8395296;28;20560;-72
2022/04/09 19:15:09;;;;;;;;;;;;;;;5.68;59.69;98539.34;8403847;28;20006;-72
2022/04/09 19:19:10;;;;;;;;;;;;;;;5.49;60.39;98542.81;8410588;28;20331;-72
2022/04/09 19:23:11;;;;;;;;;;;;;;;5.39;61.02;98542.94;8395061;28;19973;-72
2022/04/09 19:27:12;;;;;;;;;;;;;;;5.22;61.50;98550.69;8394133;28;20430;-72
2022/04/09 19:31:17;;;;;;;;;;;;;;;5.12;61.95;98553.47;8392878;28;20074;-73
2022/04/09 19:35:18;;;;;;;;;;;;;;;5.02;62.38;98558.97;8396540;28;19967;-72
2022/04/09 19:39:22;;;;;;;;;;;;;;;5.06;62.69;98554.63;8392910;28;19967;-72
2022/04/09 19:43:24;;;;;;;;;;;;;;;4.96;62.98;98560.09;8375834;28;19967;-72
2022/04/09 19:47:25;;;;;;;;;;;;;;;4.88;63.33;98564.19;8394602;28;19967;-72
2022/04/09 19:51:26;;;;;;;;;;;;;;;4.80;63.85;98561.34;8395078;28;20358;-71
2022/04/09 19:55:27;;;;;;;;;;;;;;;4.78;64.13;98568.84;8392538;28;20388;-72
2022/04/09 19:59:28;;;;;;;;;;;;;;;4.65;64.59;98581.81;8394181;28;19971;-72
2022/04/09 20:03:29;;;;;;;;;;;;;;;4.67;64.47;98579.66;8386711;28;19967;-72
2022/04/09 20:07:31;;;;;;;;;;;;;;;4.59;65.02;98590.97;8397109;28;20054;-71
2022/04/09 20:11:35;;;;;;;;;;;;;;;4.58;65.56;98597.41;8393709;28;20509;-72
2022/04/09 20:15:37;;;;;;;;;;;;;;;4.72;65.97;98608.22;8393716;28;20021;-72
2022/04/09 20:19:39;;;;;;;;;;;;;;;5.00;65.44;98614.63;8398553;28;19967;-72
2022/04/09 20:23:41;;;;;;;;;;;;;;;5.09;65.32;98612.91;8407308;28;19967;-72
2022/04/09 20:27:43;;;;;;;;;;;;;;;5.15;65.88;98622.50;8395752;28;19975;-72
2022/04/09 20:31:45;;;;;;;;;;;;;;;5.06;66.38;98629.56;8417482;28;20048;-72
2022/04/09 20:35:46;;;;;;;;;;;;;;;5.00;67.72;98636.03;8394261;28;20020;-71
2022/04/09 20:40:07;;;;;;;;;;;;;;;4.97;68.90;98647.31;8424476;28;20335;-71
2022/04/09 20:44:08;;;;;;;;;;;;;;;4.77;70.08;98652.84;8437660;28;20058;-72
2022/04/09 20:48:09;;;;;;;;;;;;;;;4.52;71.46;98652.00;8412673;28;19990;-71
2022/04/09 20:52:10;;;;;;;;;;;;;;;4.37;72.60;98649.44;8432056;28;20009;-72
2022/04/09 20:56:11;;;;;;;;;;;;;;;4.34;73.92;98639.28;8429349;28;20158;-71
2022/04/09 21:00:13;;;;;;;;;;;;;;;4.19;73.51;98642.09;8430837;28;20508;-72
2022/04/09 21:04:15;;;;;;;;;;;;;;;4.01;75.07;98654.25;8431651;28;20074;-72
2022/04/09 21:08:16;;;;;;;;;;;;;;;3.86;75.21;98653.53;8428829;28;19982;-72
2022/04/09 21:12:18;;;;;;;;;;;;;;;3.78;75.94;98658.38;8421422;28;19986;-72